sensor_id;sensor_type;location;lat;lon;timestamp;pressure;altitude;pressure_sealevel;temperature;humidity
74433;BME280;62865;53.146;23.172;2022-10-22T00:04:23;1021.9;;;9.1;63.8
74433;BME280;62865;53.146;23.172;2022-10-22T00:08:59;1021.8;;;9.1;63.9
74433;BME280;62865;53.146;23.172;2022-10-22T00:14:17;1021.8;;;9.2;63.6
74433;BME280;62865;53.146;23.172;2022-10-22T00:19:21;1021.8;;;9.2;63.5
74433;BME280;62865;53.146;23.172;2022-10-22T00:24:05;1021.8;;;9.2;63.8
74433;BME280;62865;53.146;23.172;2022-10-22T00:29:07;1021.7;;;9.2;63.6
74433;BME280;62865;53.146;23.172;2022-10-22T00:34:03;1021.6;;;9.1;63.8
74433;BME280;62865;53.146;23.172;2022-10-22T00:38:47;1021.6;;;9;64.1
74433;BME280;62865;53.146;23.172;2022-10-22T00:43:54;1021.5;;;8.9;64.6
74433;BME280;62865;53.146;23.172;2022-10-22T00:49:07;1021.5;;;9;64.6
74433;BME280;62865;53.146;23.172;2022-10-22T00:54:23;1021.5;;;9.1;64.3
74433;BME280;62865;53.146;23.172;2022-10-22T01:04:09;1021.2;;;9.2;63.9
74433;BME280;62865;53.146;23.172;2022-10-22T01:08:57;1021.2;;;9.2;63.9
74433;BME280;62865;53.146;23.172;2022-10-22T01:14:17;1021.2;;;9.2;63.9
74433;BME280;62865;53.146;23.172;2022-10-22T01:19:57;1021.2;;;9.2;64
74433;BME280;62865;53.146;23.172;2022-10-22T01:24:27;1021.3;;;9.1;64.1
74433;BME280;62865;53.146;23.172;2022-10-22T01:28:49;1021.2;;;9.1;64.2
74433;BME280;62865;53.146;23.172;2022-10-22T01:34:01;1021.1;;;9.1;64.3
74433;BME280;62865;53.146;23.172;2022-10-22T01:39:09;1021.1;;;9.2;64.1
74433;BME280;62865;53.146;23.172;2022-10-22T01:43:53;1021.1;;;9.1;64.3
74433;BME280;62865;53.146;23.172;2022-10-22T01:49:21;1021.1;;;9.1;64.5
74433;BME280;62865;53.146;23.172;2022-10-22T01:54:20;1021;;;9.1;64.5
74433;BME280;62865;53.146;23.172;2022-10-22T01:59:18;1020.9;;;9.1;64.5
74433;BME280;62865;53.146;23.172;2022-10-22T02:04:16;1020.9;;;9.1;64.7
74433;BME280;62865;53.146;23.172;2022-10-22T02:09:23;1020.8;;;9;65.3
74433;BME280;62865;53.146;23.172;2022-10-22T02:13:51;1020.8;;;9;65.7
74433;BME280;62865;53.146;23.172;2022-10-22T02:19:16;1020.7;;;9.1;65.4
74433;BME280;62865;53.146;23.172;2022-10-22T02:23:47;1020.7;;;9.2;65.3
74433;BME280;62865;53.146;23.172;2022-10-22T02:29:24;1020.7;;;9.2;65.1
74433;BME280;62865;53.146;23.172;2022-10-22T02:34:22;1020.6;;;9;66
74433;BME280;62865;53.146;23.172;2022-10-22T02:39:01;1020.6;;;9;66
74433;BME280;62865;53.146;23.172;2022-10-22T02:44:23;1020.7;;;9.1;66.4
74433;BME280;62865;53.146;23.172;2022-10-22T02:49:19;1020.7;;;9.1;66.4
74433;BME280;62865;53.146;23.172;2022-10-22T02:54:09;1020.7;;;9.1;67
74433;BME280;62865;53.146;23.172;2022-10-22T02:58:47;1020.7;;;9;67.1
74433;BME280;62865;53.146;23.172;2022-10-22T03:04:11;1020.7;;;9;67.4
74433;BME280;62865;53.146;23.172;2022-10-22T03:09:01;1020.6;;;9;67.5
74433;BME280;62865;53.146;23.172;2022-10-22T03:13:47;1020.6;;;9;67.7
74433;BME280;62865;53.146;23.172;2022-10-22T03:19:01;1020.6;;;9;67.6
74433;BME280;62865;53.146;23.172;2022-10-22T03:24:27;1020.5;;;9;67.8
74433;BME280;62865;53.146;23.172;2022-10-22T03:29:19;1020.5;;;8.9;68.3
74433;BME280;62865;53.146;23.172;2022-10-22T03:34:09;1020.6;;;8.8;68.4
74433;BME280;62865;53.146;23.172;2022-10-22T03:38:47;1020.5;;;8.8;68.5
74433;BME280;62865;53.146;23.172;2022-10-22T03:44:17;1020.5;;;8.7;68.9
74433;BME280;62865;53.146;23.172;2022-10-22T03:49:27;1020.5;;;8.7;69.7
74433;BME280;62865;53.146;23.172;2022-10-22T03:54:09;1020.5;;;8.7;70.1
74433;BME280;62865;53.146;23.172;2022-10-22T03:58:57;1020.4;;;8.6;70.9
74433;BME280;62865;53.146;23.172;2022-10-22T04:04:11;1020.3;;;8.6;71.3
74433;BME280;62865;53.146;23.172;2022-10-22T04:09:15;1020.3;;;8.6;71.2
74433;BME280;62865;53.146;23.172;2022-10-22T04:13:53;1020.4;;;8.5;72
74433;BME280;62865;53.146;23.172;2022-10-22T04:19:17;1020.4;;;8.6;71.6
74433;BME280;62865;53.146;23.172;2022-10-22T04:24:19;1020.5;;;8.6;72
74433;BME280;62865;53.146;23.172;2022-10-22T04:29:25;1020.5;;;8.5;72.1
74433;BME280;62865;53.146;23.172;2022-10-22T04:34:17;1020.4;;;8.4;72.9
74433;BME280;62865;53.146;23.172;2022-10-22T04:39:25;1020.4;;;8.4;72.9
74433;BME280;62865;53.146;23.172;2022-10-22T04:43:59;1020.4;;;8.6;72.8
74433;BME280;62865;53.146;23.172;2022-10-22T04:48:47;1020.4;;;8.6;72.8
74433;BME280;62865;53.146;23.172;2022-10-22T04:54:01;1020.3;;;8.6;72.8
74433;BME280;62865;53.146;23.172;2022-10-22T04:59:27;1020.4;;;8.7;72.8
74433;BME280;62865;53.146;23.172;2022-10-22T05:04:15;1020.3;;;8.6;73.2
74433;BME280;62865;53.146;23.172;2022-10-22T05:09:07;1020.2;;;8.7;73.3
74433;BME280;62865;53.146;23.172;2022-10-22T05:14:27;1020.3;;;8.6;73.4
74433;BME280;62865;53.146;23.172;2022-10-22T05:19:19;1020.3;;;8.5;74.3
74433;BME280;62865;53.146;23.172;2022-10-22T05:24:07;1020.4;;;8.4;75.2
74433;BME280;62865;53.146;23.172;2022-10-22T05:29:07;1020.4;;;8.6;74.6
74433;BME280;62865;53.146;23.172;2022-10-22T05:34:19;1020.4;;;8.7;74.6
74433;BME280;62865;53.146;23.172;2022-10-22T05:39:03;1020.3;;;8.8;73.7
74433;BME280;62865;53.146;23.172;2022-10-22T05:43:47;1020.2;;;8.7;74.8
74433;BME280;62865;53.146;23.172;2022-10-22T05:49:10;1020.2;;;8.7;74.7
74433;BME280;62865;53.146;23.172;2022-10-22T05:54:27;1020.2;;;8.8;74.9
74433;BME280;62865;53.146;23.172;2022-10-22T05:58:57;1020.2;;;8.8;74.9
74433;BME280;62865;53.146;23.172;2022-10-22T06:04:10;1020.2;;;8.8;75.1
74433;BME280;62865;53.146;23.172;2022-10-22T06:08:47;1020.1;;;8.7;75.4
74433;BME280;62865;53.146;23.172;2022-10-22T06:14:17;1020.1;;;8.7;76
74433;BME280;62865;53.146;23.172;2022-10-22T06:19:25;1020.1;;;8.7;76.1
74433;BME280;62865;53.146;23.172;2022-10-22T06:24:01;1020.3;;;8.8;76.2
74433;BME280;62865;53.146;23.172;2022-10-22T06:28:47;1020.3;;;8.9;76.2
74433;BME280;62865;53.146;23.172;2022-10-22T06:34:10;1020.3;;;8.9;76.2
74433;BME280;62865;53.146;23.172;2022-10-22T06:39:15;1020.2;;;9.1;76.2
74433;BME280;62865;53.146;23.172;2022-10-22T06:44:05;1020.3;;;9.2;75.8
74433;BME280;62865;53.146;23.172;2022-10-22T06:48:57;1020.3;;;9.3;75.7
74433;BME280;62865;53.146;23.172;2022-10-22T06:54:19;1020.3;;;9.3;76.1
74433;BME280;62865;53.146;23.172;2022-10-22T06:59:21;1020.4;;;9.3;76.2
74433;BME280;62865;53.146;23.172;2022-10-22T07:04:19;1020.3;;;9.3;76.3
74433;BME280;62865;53.146;23.172;2022-10-22T07:09:29;1020.3;;;9.4;76
74433;BME280;62865;53.146;23.172;2022-10-22T07:13:55;1020.3;;;9.4;76
74433;BME280;62865;53.146;23.172;2022-10-22T07:18:47;1020.3;;;9.4;76
74433;BME280;62865;53.146;23.172;2022-10-22T07:23:47;1020.3;;;9.6;76.5
74433;BME280;62865;53.146;23.172;2022-10-22T07:29:29;1020.4;;;10;75.6
74433;BME280;62865;53.146;23.172;2022-10-22T07:34:27;1020.4;;;10.1;75.1
74433;BME280;62865;53.146;23.172;2022-10-22T07:39:09;1020.5;;;10.2;75
74433;BME280;62865;53.146;23.172;2022-10-22T07:44:31;1020.4;;;10.2;75.1
74433;BME280;62865;53.146;23.172;2022-10-22T07:49:17;1020.4;;;10;76
74433;BME280;62865;53.146;23.172;2022-10-22T07:54:09;1020.4;;;9.9;76.2
74433;BME280;62865;53.146;23.172;2022-10-22T07:59:11;1020.3;;;10.1;76.3
74433;BME280;62865;53.146;23.172;2022-10-22T08:03:55;1020.2;;;10.2;76.7
74433;BME280;62865;53.146;23.172;2022-10-22T08:08:45;1020.3;;;10.3;76.3
74433;BME280;62865;53.146;23.172;2022-10-22T08:13:45;1020.3;;;10.3;76.3
74433;BME280;62865;53.146;23.172;2022-10-22T08:19:05;1020.3;;;10.4;76.2
74433;BME280;62865;53.146;23.172;2022-10-22T08:24:29;1020.4;;;10.6;76
74433;BME280;62865;53.146;23.172;2022-10-22T08:29:21;1020.3;;;10.6;76.1
74433;BME280;62865;53.146;23.172;2022-10-22T08:34:11;1020.1;;;10.6;76.5
74433;BME280;62865;53.146;23.172;2022-10-22T08:39:11;1020.1;;;10.5;77
74433;BME280;62865;53.146;23.172;2022-10-22T08:44:35;1020.1;;;10.6;77.6
74433;BME280;62865;53.146;23.172;2022-10-22T08:49:30;1020.1;;;10.8;76.9
74433;BME280;62865;53.146;23.172;2022-10-22T08:53:50;1020.1;;;11.1;75.9
74433;BME280;62865;53.146;23.172;2022-10-22T08:58:48;1020.1;;;11.1;75.9
74433;BME280;62865;53.146;23.172;2022-10-22T09:03:47;1020.1;;;11.2;75.3
74433;BME280;62865;53.146;23.172;2022-10-22T09:14:18;1020.2;;;11;76.6
74433;BME280;62865;53.146;23.172;2022-10-22T09:19:19;1020.2;;;10.9;77
74433;BME280;62865;53.146;23.172;2022-10-22T09:24:19;1020.2;;;10.8;77.5
74433;BME280;62865;53.146;23.172;2022-10-22T09:29:15;1020.2;;;10.9;77.6
74433;BME280;62865;53.146;23.172;2022-10-22T09:34:10;1020.2;;;10.9;77.6
74433;BME280;62865;53.146;23.172;2022-10-22T09:39:27;1020.3;;;11.4;75.6
74433;BME280;62865;53.146;23.172;2022-10-22T09:43:53;1020.3;;;11.3;76.3
74433;BME280;62865;53.146;23.172;2022-10-22T09:49:00;1020.2;;;11.2;77.2
74433;BME280;62865;53.146;23.172;2022-10-22T09:53:46;1020.3;;;11.1;77.6
74433;BME280;62865;53.146;23.172;2022-10-22T09:59:18;1020.2;;;11.1;78.2
74433;BME280;62865;53.146;23.172;2022-10-22T10:04:25;1020.2;;;11.1;78.2
74433;BME280;62865;53.146;23.172;2022-10-22T10:09:07;1020.2;;;11.2;77.8
74433;BME280;62865;53.146;23.172;2022-10-22T10:14:10;1020.2;;;11.1;78
74433;BME280;62865;53.146;23.172;2022-10-22T10:19:21;1020.1;;;11.1;78.8
74433;BME280;62865;53.146;23.172;2022-10-22T10:29:11;1020.1;;;11.1;78.8
74433;BME280;62865;53.146;23.172;2022-10-22T10:34:11;1020.1;;;11.6;76.8
74433;BME280;62865;53.146;23.172;2022-10-22T10:39:07;1020;;;11.4;78.4
74433;BME280;62865;53.146;23.172;2022-10-22T10:44:24;1020;;;11.5;78
74433;BME280;62865;53.146;23.172;2022-10-22T10:49:07;1019.9;;;11.8;77
74433;BME280;62865;53.146;23.172;2022-10-22T10:54:09;1019.9;;;11.7;77.5
74433;BME280;62865;53.146;23.172;2022-10-22T10:59:44;1019.8;;;11.8;77.3
74433;BME280;62865;53.146;23.172;2022-10-22T11:04:33;1019.7;;;11.9;77.2
74433;BME280;62865;53.146;23.172;2022-10-22T11:09:09;1019.7;;;11.9;77
74433;BME280;62865;53.146;23.172;2022-10-22T11:14:28;1019.6;;;12.1;76.7
74433;BME280;62865;53.146;23.172;2022-10-22T11:19:29;1019.6;;;12.1;76.5
74433;BME280;62865;53.146;23.172;2022-10-22T11:24:29;1019.6;;;12.1;76.7
74433;BME280;62865;53.146;23.172;2022-10-22T11:28:48;1019.6;;;12.2;76.5
74433;BME280;62865;53.146;23.172;2022-10-22T11:33:49;1019.6;;;12.2;76.9
74433;BME280;62865;53.146;23.172;2022-10-22T11:49:15;1019.6;;;12.5;76.4
74433;BME280;62865;53.146;23.172;2022-10-22T11:54:49;1019.5;;;12.5;76
74433;BME280;62865;53.146;23.172;2022-10-22T11:59:29;1019.5;;;12.3;76.6
74433;BME280;62865;53.146;23.172;2022-10-22T12:04:17;1019.5;;;12.2;77.3
74433;BME280;62865;53.146;23.172;2022-10-22T12:09:15;1019.4;;;12.3;77
74433;BME280;62865;53.146;23.172;2022-10-22T12:14:27;1019.4;;;12.4;76.5
74433;BME280;62865;53.146;23.172;2022-10-22T12:19:04;1019.4;;;12.3;77.2
74433;BME280;62865;53.146;23.172;2022-10-22T12:24:01;1019.4;;;12.2;77.7
74433;BME280;62865;53.146;23.172;2022-10-22T12:29:29;1019.4;;;12.1;77.9
74433;BME280;62865;53.146;23.172;2022-10-22T12:34:18;1019.4;;;12.2;77.8
74433;BME280;62865;53.146;23.172;2022-10-22T12:39:27;1019.4;;;12.3;77.7
74433;BME280;62865;53.146;23.172;2022-10-22T12:44:10;1019.2;;;12.2;78.3
74433;BME280;62865;53.146;23.172;2022-10-22T12:49:16;1019.2;;;12.2;78.3
74433;BME280;62865;53.146;23.172;2022-10-22T12:54:27;1019.3;;;12.6;76.5
74433;BME280;62865;53.146;23.172;2022-10-22T12:59:18;1019.3;;;12.5;76.6
74433;BME280;62865;53.146;23.172;2022-10-22T13:04:17;1019.4;;;12.4;77.2
74433;BME280;62865;53.146;23.172;2022-10-22T13:08:56;1019.5;;;12.5;77.1
74433;BME280;62865;53.146;23.172;2022-10-22T13:14:02;1019.5;;;12.5;77.1
74433;BME280;62865;53.146;23.172;2022-10-22T13:19:31;1019.5;;;12.5;77.1
74433;BME280;62865;53.146;23.172;2022-10-22T13:23:51;1019.2;;;12.7;76.7
74433;BME280;62865;53.146;23.172;2022-10-22T13:29:27;1019.3;;;12.6;77.1
74433;BME280;62865;53.146;23.172;2022-10-22T13:34:27;1019.3;;;12.6;77.1
74433;BME280;62865;53.146;23.172;2022-10-22T13:39:11;1019.2;;;12.5;77.5
74433;BME280;62865;53.146;23.172;2022-10-22T13:44:27;1019.1;;;12.5;77.8
74433;BME280;62865;53.146;23.172;2022-10-22T13:49:29;1019.1;;;12.5;77.8
74433;BME280;62865;53.146;23.172;2022-10-22T13:54:29;1019.2;;;12.4;78.2
74433;BME280;62865;53.146;23.172;2022-10-22T14:04:17;1019.2;;;12.4;78.2
74433;BME280;62865;53.146;23.172;2022-10-22T14:09:25;1019.1;;;12.2;79.7
74433;BME280;62865;53.146;23.172;2022-10-22T14:14:17;1019;;;12.2;79.9
74433;BME280;62865;53.146;23.172;2022-10-22T14:18:47;1019;;;12.3;79.8
74433;BME280;62865;53.146;23.172;2022-10-22T14:24:17;1019;;;12.3;79.8
74433;BME280;62865;53.146;23.172;2022-10-22T14:29:03;1019;;;12.6;78.2
74433;BME280;62865;53.146;23.172;2022-10-22T14:34:19;1019;;;12.4;79.3
74433;BME280;62865;53.146;23.172;2022-10-22T14:39:13;1019.1;;;12.4;79.7
74433;BME280;62865;53.146;23.172;2022-10-22T14:44:27;1019.1;;;12.4;79.7
74433;BME280;62865;53.146;23.172;2022-10-22T14:53:55;1019.1;;;12.4;79.7
74433;BME280;62865;53.146;23.172;2022-10-22T14:59:25;1019;;;12.6;79.5
74433;BME280;62865;53.146;23.172;2022-10-22T15:04:17;1019;;;12.8;78.7
74433;BME280;62865;53.146;23.172;2022-10-22T15:09:27;1019.1;;;12.7;78.8
74433;BME280;62865;53.146;23.172;2022-10-22T15:14:03;1019.2;;;12.6;79.3
74433;BME280;62865;53.146;23.172;2022-10-22T15:24:15;1019.1;;;12.8;78.9
74433;BME280;62865;53.146;23.172;2022-10-22T15:29:18;1019.1;;;12.7;79.1
74433;BME280;62865;53.146;23.172;2022-10-22T15:34:09;1019.1;;;12.7;79.4
74433;BME280;62865;53.146;23.172;2022-10-22T15:43:55;1019.1;;;13;78.5
74433;BME280;62865;53.146;23.172;2022-10-22T15:48:47;1019;;;13;78.5
74433;BME280;62865;53.146;23.172;2022-10-22T15:53:52;1019.1;;;13;78.2
74433;BME280;62865;53.146;23.172;2022-10-22T15:59:29;1019.1;;;13;78.3
74433;BME280;62865;53.146;23.172;2022-10-22T16:04:21;1019.2;;;13;78.4
74433;BME280;62865;53.146;23.172;2022-10-22T16:09:12;1019.2;;;12.9;79
74433;BME280;62865;53.146;23.172;2022-10-22T16:14:09;1019.1;;;12.8;79.5
74433;BME280;62865;53.146;23.172;2022-10-22T16:19:22;1019.2;;;12.8;79.2
74433;BME280;62865;53.146;23.172;2022-10-22T16:24:27;1019.2;;;12.8;79.1
74433;BME280;62865;53.146;23.172;2022-10-22T16:29:03;1019.2;;;12.7;79.5
74433;BME280;62865;53.146;23.172;2022-10-22T16:34:13;1019.2;;;12.5;81
74433;BME280;62865;53.146;23.172;2022-10-22T16:38:47;1019.1;;;12.6;80.8
74433;BME280;62865;53.146;23.172;2022-10-22T16:44:17;1019.1;;;12.7;80.3
74433;BME280;62865;53.146;23.172;2022-10-22T16:49:09;1019.1;;;12.8;80
74433;BME280;62865;53.146;23.172;2022-10-22T16:54:19;1019.1;;;12.9;79.8
74433;BME280;62865;53.146;23.172;2022-10-22T16:59:11;1019.1;;;13;79.7
74433;BME280;62865;53.146;23.172;2022-10-22T17:09:17;1019.2;;;13.1;78.9
74433;BME280;62865;53.146;23.172;2022-10-22T17:14:29;1019.2;;;12.9;79.6
74433;BME280;62865;53.146;23.172;2022-10-22T17:19:03;1019.2;;;12.7;80.3
74433;BME280;62865;53.146;23.172;2022-10-22T17:23:56;1019.3;;;12.7;80.6
74433;BME280;62865;53.146;23.172;2022-10-22T17:29:07;1019.3;;;12.7;80.7
74433;BME280;62865;53.146;23.172;2022-10-22T17:34:21;1019.3;;;12.8;80.6
74433;BME280;62865;53.146;23.172;2022-10-22T17:39:29;1019.3;;;12.8;80.5
74433;BME280;62865;53.146;23.172;2022-10-22T17:44:11;1019.3;;;12.7;80.8
74433;BME280;62865;53.146;23.172;2022-10-22T17:49:29;1019.3;;;12.8;80.6
74433;BME280;62865;53.146;23.172;2022-10-22T17:54:17;1019.2;;;12.8;80.8
74433;BME280;62865;53.146;23.172;2022-10-22T17:59:12;1019.2;;;12.8;80.6
74433;BME280;62865;53.146;23.172;2022-10-22T18:08:47;1019.2;;;12.8;80.6
74433;BME280;62865;53.146;23.172;2022-10-22T18:14:09;1019.1;;;12.8;80.8
74433;BME280;62865;53.146;23.172;2022-10-22T18:19:13;1019.2;;;12.7;81.6
74433;BME280;62865;53.146;23.172;2022-10-22T18:23:53;1019.1;;;12.6;82
74433;BME280;62865;53.146;23.172;2022-10-22T18:34:21;1019;;;12.6;81.6
74433;BME280;62865;53.146;23.172;2022-10-22T18:39:09;1019;;;12.5;82.2
74433;BME280;62865;53.146;23.172;2022-10-22T18:44:11;1019;;;12.7;82.1
74433;BME280;62865;53.146;23.172;2022-10-22T18:49:06;1019;;;12.8;81.7
74433;BME280;62865;53.146;23.172;2022-10-22T18:54:29;1019;;;12.9;81.4
74433;BME280;62865;53.146;23.172;2022-10-22T18:58:53;1019;;;13;81.2
74433;BME280;62865;53.146;23.172;2022-10-22T19:03:47;1019;;;13.1;80.7
74433;BME280;62865;53.146;23.172;2022-10-22T19:09:27;1018.9;;;13.1;80.8
74433;BME280;62865;53.146;23.172;2022-10-22T19:13:49;1019;;;13;81.1
74433;BME280;62865;53.146;23.172;2022-10-22T19:18:57;1019;;;13;81.3
74433;BME280;62865;53.146;23.172;2022-10-22T19:24:18;1019;;;13.1;81.1
74433;BME280;62865;53.146;23.172;2022-10-22T19:29:21;1019;;;13.1;81
74433;BME280;62865;53.146;23.172;2022-10-22T19:34:21;1019;;;13.1;81.1
74433;BME280;62865;53.146;23.172;2022-10-22T19:39:18;1019.1;;;13.2;80.9
74433;BME280;62865;53.146;23.172;2022-10-22T19:44:27;1019;;;13.2;80.9
74433;BME280;62865;53.146;23.172;2022-10-22T19:48:48;1019.1;;;13.2;80.9
74433;BME280;62865;53.146;23.172;2022-10-22T19:54:21;1019.1;;;13.2;81.1
74433;BME280;62865;53.146;23.172;2022-10-22T19:59:03;1019.1;;;13.2;80.9
74433;BME280;62865;53.146;23.172;2022-10-22T20:04:19;1019.1;;;13.2;81.5
74433;BME280;62865;53.146;23.172;2022-10-22T20:09:17;1019.1;;;13.3;81.1
74433;BME280;62865;53.146;23.172;2022-10-22T20:14:19;1019.2;;;13.4;80.7
74433;BME280;62865;53.146;23.172;2022-10-22T20:19:09;1019.2;;;13.4;80.6
74433;BME280;62865;53.146;23.172;2022-10-22T20:24:19;1019.2;;;13.4;80.8
74433;BME280;62865;53.146;23.172;2022-10-22T20:29:25;1019.2;;;13.3;81.1
74433;BME280;62865;53.146;23.172;2022-10-22T20:34:11;1019.2;;;13.4;81
74433;BME280;62865;53.146;23.172;2022-10-22T20:38:47;1019.2;;;13.4;81
74433;BME280;62865;53.146;23.172;2022-10-22T20:43:48;1019.2;;;13.5;80.8
74433;BME280;62865;53.146;23.172;2022-10-22T20:48:48;1019.3;;;13.3;81.7
74433;BME280;62865;53.146;23.172;2022-10-22T20:53:53;1019.2;;;13.3;81.8
74433;BME280;62865;53.146;23.172;2022-10-22T20:59:07;1019.3;;;13.3;82
74433;BME280;62865;53.146;23.172;2022-10-22T21:04:29;1019.2;;;13.3;82.3
74433;BME280;62865;53.146;23.172;2022-10-22T21:09:27;1019.2;;;13.4;82.2
74433;BME280;62865;53.146;23.172;2022-10-22T21:13:47;1019.2;;;13.3;82.7
74433;BME280;62865;53.146;23.172;2022-10-22T21:19:29;1019.2;;;13.4;83
74433;BME280;62865;53.146;23.172;2022-10-22T21:24:27;1019.2;;;13.5;82.5
74433;BME280;62865;53.146;23.172;2022-10-22T21:29:29;1019.2;;;13.3;83.2
74433;BME280;62865;53.146;23.172;2022-10-22T21:33:53;1019.2;;;13.3;83.6
74433;BME280;62865;53.146;23.172;2022-10-22T21:38:53;1019.2;;;13.3;83.7
74433;BME280;62865;53.146;23.172;2022-10-22T21:44:27;1019.2;;;13.3;84
74433;BME280;62865;53.146;23.172;2022-10-22T21:49:19;1019.2;;;13.3;84
74433;BME280;62865;53.146;23.172;2022-10-22T21:54:19;1019.1;;;13.5;83.6
74433;BME280;62865;53.146;23.172;2022-10-22T21:59:19;1019.2;;;13.5;83.6
74433;BME280;62865;53.146;23.172;2022-10-22T22:04:20;1019.2;;;13.6;83.5
74433;BME280;62865;53.146;23.172;2022-10-22T22:09:09;1019.2;;;13.6;83.5
74433;BME280;62865;53.146;23.172;2022-10-22T22:14:17;1019.2;;;13.5;83.6
74433;BME280;62865;53.146;23.172;2022-10-22T22:19:27;1019.2;;;13.6;83.9
74433;BME280;62865;53.146;23.172;2022-10-22T22:24:01;1019.2;;;13.6;83.2
74433;BME280;62865;53.146;23.172;2022-10-22T22:29:13;1019.2;;;13.6;83.2
74433;BME280;62865;53.146;23.172;2022-10-22T22:34:29;1019.2;;;13.5;82.9
74433;BME280;62865;53.146;23.172;2022-10-22T22:39:20;1019.2;;;13.1;84.3
74433;BME280;62865;53.146;23.172;2022-10-22T22:44:27;1019.3;;;13;85.2
74433;BME280;62865;53.146;23.172;2022-10-22T22:48:48;1019.2;;;13.1;84.1
74433;BME280;62865;53.146;23.172;2022-10-22T22:54:17;1019.3;;;13;84.9
74433;BME280;62865;53.146;23.172;2022-10-22T22:59:27;1019.3;;;13.1;84.8
74433;BME280;62865;53.146;23.172;2022-10-22T23:04:10;1019.2;;;12.9;85.5
74433;BME280;62865;53.146;23.172;2022-10-22T23:09:09;1019.2;;;12.9;85.5
74433;BME280;62865;53.146;23.172;2022-10-22T23:13:46;1019.3;;;13.1;84.9
74433;BME280;62865;53.146;23.172;2022-10-22T23:19:18;1019.3;;;13.2;84.2
74433;BME280;62865;53.146;23.172;2022-10-22T23:23:46;1019.4;;;13.1;83.9
74433;BME280;62865;53.146;23.172;2022-10-22T23:29:20;1019.4;;;13;84.3
74433;BME280;62865;53.146;23.172;2022-10-22T23:34:22;1019.4;;;13;84.2
74433;BME280;62865;53.146;23.172;2022-10-22T23:39:24;1019.5;;;12.9;84.4
74433;BME280;62865;53.146;23.172;2022-10-22T23:44:07;1019.5;;;12.9;84.4
74433;BME280;62865;53.146;23.172;2022-10-22T23:49:23;1019.6;;;13;82.8
74433;BME280;62865;53.146;23.172;2022-10-22T23:54:21;1019.6;;;12.9;82.9
74433;BME280;62865;53.146;23.172;2022-10-22T23:59:21;1019.7;;;12.8;83.1
